createdAt,value
2022-12-29T00:00:08.215Z,9.50
2022-12-29T00:02:41.367Z,9.93
2022-12-29T00:05:08.804Z,8.75
2022-12-29T00:07:35.632Z,7.80
2022-12-29T00:10:02.535Z,7.50
2022-12-29T00:12:49.130Z,7.00
2022-12-29T00:15:34.746Z,6.80
2022-12-29T00:18:01.450Z,7.07
2022-12-29T00:20:46.705Z,7.85
2022-12-29T00:23:32.828Z,7.68
2022-12-29T00:26:22.188Z,7.63
2022-12-29T00:29:09.332Z,7.50
2022-12-29T00:31:54.426Z,8.13
2022-12-29T00:34:39.765Z,8.75
2022-12-29T00:37:06.518Z,8.70
2022-12-29T00:39:52.868Z,8.77
2022-12-29T00:42:38.126Z,9.43
2022-12-29T00:45:05.606Z,9.55
2022-12-29T00:47:32.181Z,9.25
2022-12-29T00:49:58.973Z,9.02
2022-12-29T00:52:25.587Z,9.60
2022-12-29T00:54:52.213Z,9.05
2022-12-29T00:57:19.418Z,9.50
2022-12-29T00:59:46.226Z,9.13
2022-12-29T01:02:13.131Z,9.30
2022-12-29T01:04:39.942Z,8.77
2022-12-29T01:07:06.615Z,8.88
2022-12-29T01:09:52.525Z,8.45
2022-12-29T01:15:07.224Z,8.38
2022-12-29T01:17:34.062Z,8.80
2022-12-29T01:20:01.796Z,9.07
2022-12-29T01:22:28.678Z,9.18
2022-12-29T01:24:56.377Z,9.40
2022-12-29T01:27:22.976Z,9.35
2022-12-29T01:29:49.608Z,10.02
2022-12-29T01:32:16.327Z,9.93
2022-12-29T01:34:45.188Z,9.57
2022-12-29T01:37:12.747Z,9.10
2022-12-29T01:39:39.637Z,10.00
2022-12-29T01:42:06.388Z,10.27
2022-12-29T01:44:55.956Z,9.63
2022-12-29T01:47:49.128Z,8.07
2022-12-29T01:50:27.149Z,6.97
2022-12-29T01:53:02.718Z,6.43
2022-12-29T01:55:33.713Z,6.00
2022-12-29T01:58:04.916Z,5.43
2022-12-29T02:00:31.600Z,6.13
2022-12-29T02:02:58.248Z,5.43
2022-12-29T02:05:32.869Z,5.82
2022-12-29T02:08:01.085Z,6.07
2022-12-29T02:10:30.871Z,5.85
2022-12-29T02:12:57.771Z,6.22
2022-12-29T02:15:49.135Z,5.05
2022-12-29T02:18:27.689Z,5.93
2022-12-29T02:21:15.409Z,5.88
2022-12-29T02:23:52.896Z,5.63
2022-12-29T02:26:47.181Z,4.70
2022-12-29T02:29:35.995Z,4.57
2022-12-29T02:32:16.861Z,7.13
2022-12-29T02:35:06.206Z,9.38
2022-12-29T02:38:15.265Z,10.70
2022-12-29T02:40:52.111Z,11.23
2022-12-29T02:43:39.269Z,9.63
2022-12-29T02:46:17.319Z,9.60
2022-12-29T02:48:59.978Z,10.10
2022-12-29T02:51:39.392Z,10.30
2022-12-29T02:54:25.357Z,10.05
2022-12-29T02:56:52.005Z,10.88
2022-12-29T02:59:19.122Z,11.02
2022-12-29T03:02:21.361Z,10.77
2022-12-29T03:04:59.241Z,10.60
2022-12-29T03:07:45.521Z,11.07
2022-12-29T03:10:29.488Z,11.57
2022-12-29T03:13:43.193Z,11.20
2022-12-29T03:16:33.079Z,11.57
2022-12-29T03:19:22.214Z,12.80
2022-12-29T03:22:21.169Z,12.10
2022-12-29T03:24:58.698Z,12.88
2022-12-29T03:27:42.655Z,12.60
2022-12-29T03:30:10.908Z,13.30
2022-12-29T03:32:43.744Z,13.30
2022-12-29T03:35:15.175Z,13.27
2022-12-29T03:37:50.355Z,13.32
2022-12-29T03:40:18.539Z,13.25
2022-12-29T03:42:47.554Z,12.60
2022-12-29T03:45:15.176Z,12.77
2022-12-29T03:47:41.832Z,12.90
2022-12-29T03:50:09.535Z,13.45
2022-12-29T03:52:40.457Z,13.90
2022-12-29T03:55:07.772Z,13.25
2022-12-29T03:57:34.417Z,13.30
2022-12-29T04:00:07.077Z,13.70
2022-12-29T04:02:42.039Z,13.93
2022-12-29T04:05:11.899Z,14.23
2022-12-29T04:07:38.689Z,14.07
2022-12-29T04:10:05.913Z,14.20
2022-12-29T04:12:34.648Z,14.15
2022-12-29T04:15:01.729Z,14.10
2022-12-29T04:17:28.588Z,13.90
2022-12-29T04:20:15.222Z,13.77
2022-12-29T04:22:41.865Z,14.57
2022-12-29T04:25:08.912Z,13.90
2022-12-29T04:27:35.615Z,14.82
2022-12-29T04:30:18.092Z,14.23
2022-12-29T04:32:59.508Z,14.20
2022-12-29T04:35:26.362Z,13.60
2022-12-29T04:37:53.048Z,13.75
2022-12-29T04:40:19.715Z,13.52
2022-12-29T04:42:46.384Z,13.70
2022-12-29T04:45:13.807Z,13.60
2022-12-29T04:47:52.255Z,13.73
2022-12-29T04:50:48.165Z,13.30
2022-12-29T04:53:18.841Z,13.30
2022-12-29T04:55:52.107Z,13.38
2022-12-29T04:58:22.875Z,12.50
2022-12-29T05:00:51.247Z,12.60
2022-12-29T05:03:18.930Z,12.23
2022-12-29T05:05:45.807Z,12.55
2022-12-29T05:08:12.569Z,12.70
2022-12-29T05:10:39.171Z,13.10
2022-12-29T05:13:11.400Z,13.60
2022-12-29T05:15:38.876Z,12.88
2022-12-29T05:18:05.729Z,12.38
2022-12-29T05:20:32.592Z,12.50
2022-12-29T05:22:59.282Z,12.40
2022-12-29T05:25:26.088Z,12.43
2022-12-29T05:28:00.042Z,11.60
2022-12-29T05:30:43.496Z,12.10
2022-12-29T05:33:12.396Z,12.00
2022-12-29T05:35:39.856Z,12.60
2022-12-29T05:38:06.612Z,12.00
2022-12-29T05:40:34.638Z,12.30
2022-12-29T05:43:05.698Z,11.75
2022-12-29T05:45:52.273Z,11.38
2022-12-29T05:48:38.252Z,11.90
2022-12-29T05:51:14.672Z,11.80
2022-12-29T05:56:17.175Z,14.65
2022-12-29T05:58:45.628Z,16.13
2022-12-29T06:01:12.512Z,11.82
2022-12-29T06:03:44.509Z,12.13
2022-12-29T06:06:14.777Z,12.50
2022-12-29T06:08:41.456Z,12.32
2022-12-29T06:11:09.820Z,12.50
2022-12-29T06:13:36.537Z,13.63
2022-12-29T06:16:03.421Z,13.80
2022-12-29T06:18:31.021Z,14.30
2022-12-29T06:21:02.591Z,13.95
2022-12-29T06:23:30.000Z,14.30
2022-12-29T06:25:57.401Z,14.30
2022-12-29T06:28:24.648Z,14.60
2022-12-29T06:30:51.516Z,14.63
2022-12-29T06:33:19.055Z,14.70
2022-12-29T06:35:46.716Z,14.90
2022-12-29T06:38:14.868Z,14.93
2022-12-29T06:40:45.639Z,14.57
2022-12-29T06:43:31.527Z,14.65
2022-12-29T06:46:02.884Z,14.73
2022-12-29T06:48:29.531Z,15.43
2022-12-29T06:50:56.131Z,15.30
2022-12-29T06:53:23.800Z,15.25
2022-12-29T06:55:51.268Z,15.35
2022-12-29T06:58:17.997Z,15.40
2022-12-29T07:00:44.707Z,14.80
2022-12-29T07:03:11.773Z,14.35
2022-12-29T07:05:38.511Z,14.93
2022-12-29T07:08:05.799Z,15.55
2022-12-29T07:10:32.832Z,15.60
2022-12-29T07:12:59.492Z,15.50
2022-12-29T07:15:26.125Z,15.57
2022-12-29T07:17:52.938Z,15.80
2022-12-29T07:20:24.869Z,15.38
2022-12-29T07:22:53.559Z,15.52
2022-12-29T07:25:20.212Z,15.18
2022-12-29T07:27:46.828Z,15.10
2022-12-29T07:30:13.947Z,15.07
2022-12-29T07:32:40.619Z,15.30
2022-12-29T07:35:08.032Z,14.60
2022-12-29T07:37:35.366Z,15.07
2022-12-29T07:40:04.230Z,15.43
2022-12-29T07:42:32.676Z,15.02
2022-12-29T07:45:00.176Z,15.30
2022-12-29T07:47:33.600Z,15.10
2022-12-29T07:50:00.625Z,15.25
2022-12-29T07:52:27.528Z,16.10
2022-12-29T07:54:54.228Z,15.70
2022-12-29T07:57:23.026Z,15.60
2022-12-29T07:59:53.096Z,15.23
2022-12-29T08:02:19.873Z,15.40
2022-12-29T08:04:46.583Z,15.07
2022-12-29T08:07:13.295Z,14.20
2022-12-29T08:09:40.055Z,13.43
2022-12-29T08:12:06.882Z,13.43
2022-12-29T08:14:33.754Z,12.82
2022-12-29T08:17:00.386Z,12.38
2022-12-29T08:19:26.975Z,12.85
2022-12-29T08:21:54.330Z,12.80
2022-12-29T08:24:21.004Z,13.27
2022-12-29T08:26:47.669Z,10.10
2022-12-29T08:29:14.627Z,9.80
2022-12-29T08:31:41.305Z,8.93
2022-12-29T08:34:07.952Z,9.50
2022-12-29T08:36:34.644Z,13.95
2022-12-29T08:39:01.337Z,16.52
2022-12-29T08:41:27.942Z,16.23
2022-12-29T08:43:54.573Z,16.05
2022-12-29T08:46:21.311Z,13.18
2022-12-29T08:48:47.942Z,11.63
2022-12-29T08:51:15.163Z,11.80
2022-12-29T08:53:43.221Z,10.32
2022-12-29T08:56:10.987Z,10.15
2022-12-29T08:58:45.591Z,12.80
2022-12-29T09:01:12.345Z,11.10
2022-12-29T09:04:13.532Z,10.90
2022-12-29T09:06:25.659Z,10.48
2022-12-29T09:08:54.837Z,12.00
2022-12-29T09:11:24.259Z,11.60
2022-12-29T09:13:51.934Z,10.50
2022-12-29T09:16:19.058Z,10.98
2022-12-29T09:18:45.933Z,10.73
2022-12-29T09:21:13.905Z,12.10
2022-12-29T09:23:41.337Z,12.57
2022-12-29T09:26:08.865Z,11.75
2022-12-29T09:28:35.968Z,11.85
2022-12-29T09:31:03.427Z,11.10
2022-12-29T09:33:30.109Z,12.65
2022-12-29T09:35:59.181Z,13.15
2022-12-29T09:38:27.787Z,12.32
2022-12-29T09:41:16.303Z,11.30
2022-12-29T09:44:09.666Z,11.25
2022-12-29T09:46:41.408Z,11.40
2022-12-29T09:49:14.345Z,11.93
2022-12-29T09:51:46.764Z,14.00
2022-12-29T09:54:33.894Z,15.48
2022-12-29T09:57:00.589Z,15.20
2022-12-29T09:59:44.725Z,14.55
2022-12-29T10:02:32.803Z,15.43
2022-12-29T10:04:59.762Z,17.40
2022-12-29T10:07:37.430Z,17.98
2022-12-29T10:10:44.112Z,17.20
2022-12-29T10:13:26.935Z,19.95
2022-12-29T10:16:12.773Z,17.38
2022-12-29T10:19:04.621Z,16.73
2022-12-29T10:21:49.390Z,16.48
2022-12-29T10:24:17.596Z,16.60
2022-12-29T10:26:46.265Z,14.88
2022-12-29T10:29:16.868Z,16.05
2022-12-29T10:32:28.052Z,16.60
2022-12-29T10:34:59.506Z,16.73
2022-12-29T10:38:00.763Z,16.10
2022-12-29T10:40:36.942Z,15.57
2022-12-29T10:43:21.302Z,17.45
2022-12-29T10:45:49.415Z,17.45
2022-12-29T10:48:31.485Z,16.77
2022-12-29T10:51:02.529Z,14.70
2022-12-29T10:53:46.135Z,9.75
2022-12-29T10:56:40.138Z,6.55
2022-12-29T10:59:21.764Z,5.97
2022-12-29T11:02:10.087Z,6.50
2022-12-29T11:05:05.574Z,6.93
2022-12-29T11:07:32.726Z,5.90
2022-12-29T11:10:30.362Z,6.60
2022-12-29T11:13:12.491Z,9.05
2022-12-29T11:15:42.051Z,9.70
2022-12-29T11:18:21.279Z,9.90
2022-12-29T11:20:49.325Z,9.13
2022-12-29T11:23:33.460Z,13.95
2022-12-29T11:26:21.955Z,13.77
2022-12-29T11:29:04.959Z,15.60
2022-12-29T11:31:32.232Z,15.23
2022-12-29T11:33:59.001Z,15.93
2022-12-29T11:36:25.849Z,16.35
2022-12-29T11:38:54.960Z,16.55
2022-12-29T11:41:30.653Z,17.48
2022-12-29T11:44:03.291Z,16.80
2022-12-29T11:46:39.141Z,18.38
2022-12-29T11:49:06.409Z,17.38
2022-12-29T11:51:59.986Z,17.88
2022-12-29T11:54:28.503Z,16.33
2022-12-29T11:56:56.130Z,16.70
2022-12-29T11:59:30.701Z,18.23
2022-12-29T12:01:59.763Z,19.38
2022-12-29T12:04:32.157Z,19.00
2022-12-29T12:07:26.325Z,18.90
2022-12-29T12:10:04.853Z,20.13
2022-12-29T12:12:52.225Z,21.65
2022-12-29T12:18:11.332Z,19.95
2022-12-29T12:21:27.339Z,23.55
2022-12-29T12:24:24.290Z,20.77
2022-12-29T12:27:12.571Z,21.38
2022-12-29T12:29:57.498Z,19.73
2022-12-29T12:32:53.309Z,18.27
2022-12-29T12:38:44.494Z,19.02
2022-12-29T12:41:21.566Z,17.63
2022-12-29T12:44:01.351Z,18.65
2022-12-29T12:46:53.139Z,20.15
2022-12-29T12:49:52.221Z,19.42
2022-12-29T12:52:43.721Z,19.33
2022-12-29T12:55:48.120Z,18.77
2022-12-29T12:58:52.450Z,25.63
2022-12-29T13:01:25.791Z,19.73
2022-12-29T13:04:26.479Z,19.77
2022-12-29T13:07:28.311Z,18.88
2022-12-29T13:10:05.665Z,19.60
2022-12-29T13:13:03.891Z,19.13
2022-12-29T13:15:57.184Z,19.60
2022-12-29T13:18:54.041Z,19.25
2022-12-29T13:21:38.861Z,20.20
2022-12-29T13:24:21.809Z,18.95
2022-12-29T13:26:55.718Z,18.70
2022-12-29T13:29:56.008Z,20.20
2022-12-29T13:32:28.193Z,20.45
2022-12-29T13:35:20.883Z,19.98
2022-12-29T13:38:01.147Z,17.30
2022-12-29T13:40:34.951Z,17.40
2022-12-29T13:43:02.932Z,16.08
2022-12-29T13:45:33.453Z,15.05
2022-12-29T13:48:24.528Z,16.00
2022-12-29T13:50:58.561Z,15.77
2022-12-29T13:53:51.011Z,15.35
2022-12-29T13:56:42.380Z,16.58
2022-12-29T13:59:21.329Z,16.67
2022-12-29T14:02:04.970Z,17.08
2022-12-29T14:04:34.155Z,17.25
2022-12-29T14:07:05.443Z,17.02
2022-12-29T14:09:38.134Z,17.30
2022-12-29T14:12:26.476Z,16.67
2022-12-29T14:14:53.385Z,15.95
2022-12-29T14:17:21.970Z,15.13
2022-12-29T14:19:53.511Z,16.10
2022-12-29T14:22:32.986Z,15.45
2022-12-29T14:25:00.889Z,14.82
2022-12-29T14:27:30.820Z,12.38
2022-12-29T14:29:57.574Z,13.35
2022-12-29T14:32:27.221Z,13.13
2022-12-29T14:34:55.882Z,17.27
2022-12-29T14:37:31.443Z,13.95
2022-12-29T14:40:04.145Z,12.18
2022-12-29T14:42:32.011Z,13.18
2022-12-29T14:45:23.424Z,12.93
2022-12-29T14:47:54.540Z,13.75
2022-12-29T14:50:26.798Z,12.13
2022-12-29T14:53:03.462Z,13.00
2022-12-29T14:55:53.043Z,13.15
2022-12-29T14:58:33.284Z,14.23
2022-12-29T15:01:01.214Z,13.13
2022-12-29T15:03:33.464Z,12.85
2022-12-29T15:06:09.795Z,13.70
2022-12-29T15:08:59.585Z,14.15
2022-12-29T15:11:44.871Z,14.23
2022-12-29T15:14:31.899Z,15.00
2022-12-29T15:16:58.752Z,15.18
2022-12-29T15:19:27.292Z,16.77
2022-12-29T15:21:55.640Z,16.13
2022-12-29T15:24:22.744Z,15.95
2022-12-29T15:26:55.028Z,15.18
2022-12-29T15:29:45.463Z,15.65
2022-12-29T15:32:26.762Z,16.52
2022-12-29T15:34:57.019Z,16.08
2022-12-29T15:37:25.623Z,15.82
2022-12-29T15:39:55.233Z,16.25
2022-12-29T15:42:39.379Z,16.33
2022-12-29T15:45:11.426Z,16.20
2022-12-29T15:47:39.264Z,17.13
2022-12-29T15:50:28.877Z,16.77
2022-12-29T15:52:59.000Z,16.23
2022-12-29T15:55:36.977Z,16.00
2022-12-29T15:58:06.870Z,15.93
2022-12-29T16:00:38.002Z,17.08
2022-12-29T16:03:07.446Z,17.92
2022-12-29T16:05:39.727Z,18.15
2022-12-29T16:08:32.062Z,16.92
2022-12-29T16:10:59.209Z,15.02
2022-12-29T16:13:35.543Z,15.52
2022-12-29T16:16:20.402Z,17.13
2022-12-29T16:18:50.651Z,16.65
2022-12-29T16:21:34.795Z,15.60
2022-12-29T16:24:06.190Z,16.10
2022-12-29T16:26:33.106Z,17.50
2022-12-29T16:29:05.800Z,16.02
2022-12-29T16:31:48.702Z,16.42
2022-12-29T16:34:43.723Z,16.13
2022-12-29T16:37:25.432Z,16.38
2022-12-29T16:39:52.035Z,16.20
2022-12-29T16:42:50.562Z,14.98
2022-12-29T16:45:21.475Z,15.50
2022-12-29T16:48:09.793Z,14.23
2022-12-29T16:50:40.013Z,13.82
2022-12-29T16:53:17.209Z,13.48
2022-12-29T16:55:47.973Z,13.00
2022-12-29T16:58:22.685Z,13.90
2022-12-29T17:00:49.558Z,14.20
2022-12-29T17:03:17.028Z,14.38
2022-12-29T17:05:43.644Z,15.25
2022-12-29T17:08:23.648Z,14.52
2022-12-29T17:11:12.556Z,14.10
2022-12-29T17:13:39.728Z,14.10
2022-12-29T17:16:08.308Z,13.73
2022-12-29T17:18:35.427Z,13.88
2022-12-29T17:21:02.503Z,14.48
2022-12-29T17:23:31.844Z,14.32
2022-12-29T17:25:58.486Z,13.60
2022-12-29T17:28:29.124Z,13.73
2022-12-29T17:31:00.478Z,14.00
2022-12-29T17:33:30.791Z,13.85
2022-12-29T17:35:57.408Z,12.57
2022-12-29T17:38:32.056Z,13.25
2022-12-29T17:40:59.531Z,13.90
2022-12-29T17:43:31.465Z,13.20
2022-12-29T17:46:03.036Z,13.05
2022-12-29T17:48:29.645Z,12.80
2022-12-29T17:50:57.821Z,12.35
2022-12-29T17:53:27.644Z,15.45
2022-12-29T17:55:54.382Z,13.60
2022-12-29T17:58:21.993Z,14.85
2022-12-29T18:00:50.275Z,15.82
2022-12-29T18:03:20.769Z,15.13
2022-12-29T18:05:49.636Z,14.98
2022-12-29T18:08:16.542Z,14.60
2022-12-29T18:10:46.004Z,13.38
2022-12-29T18:13:25.430Z,13.98
2022-12-29T18:15:53.839Z,16.25
2022-12-29T18:18:26.715Z,14.85
2022-12-29T18:20:55.840Z,14.90
2022-12-29T18:23:25.105Z,15.35
2022-12-29T18:26:00.863Z,15.23
2022-12-29T18:28:28.376Z,14.70
2022-12-29T18:30:56.854Z,15.07
2022-12-29T18:33:26.382Z,13.85
2022-12-29T18:35:56.273Z,14.15
2022-12-29T18:38:23.134Z,13.90
2022-12-29T18:40:50.154Z,13.80
2022-12-29T18:43:18.127Z,13.75
2022-12-29T18:45:48.476Z,14.63
2022-12-29T18:48:16.949Z,13.30
2022-12-29T18:50:44.365Z,14.65
2022-12-29T18:53:32.686Z,13.90
2022-12-29T18:55:59.353Z,13.48
2022-12-29T18:58:33.752Z,15.18
2022-12-29T19:01:00.885Z,14.20
2022-12-29T19:03:27.599Z,15.75
2022-12-29T19:05:54.417Z,14.35
2022-12-29T19:08:21.038Z,14.30
2022-12-29T19:10:48.098Z,14.35
2022-12-29T19:13:18.026Z,14.50
2022-12-29T19:15:46.432Z,13.20
2022-12-29T19:21:10.755Z,13.07
2022-12-29T19:23:37.399Z,13.73
2022-12-29T19:26:04.080Z,14.43
2022-12-29T19:28:30.677Z,14.00
2022-12-29T19:31:02.222Z,13.30
2022-12-29T19:33:29.522Z,13.80
2022-12-29T19:36:02.076Z,13.32
2022-12-29T19:38:29.330Z,13.00
2022-12-29T19:40:56.224Z,11.88
2022-12-29T19:43:23.294Z,12.45
2022-12-29T19:45:51.268Z,12.77
2022-12-29T19:48:20.095Z,10.48
2022-12-29T19:50:47.328Z,8.38
2022-12-29T19:53:15.065Z,6.47
2022-12-29T19:55:46.332Z,6.50
2022-12-29T19:58:14.217Z,5.65
2022-12-29T20:00:42.734Z,4.65
2022-12-29T20:03:10.396Z,4.78
2022-12-29T20:05:37.931Z,6.25
2022-12-29T20:08:04.832Z,6.20
2022-12-29T20:10:31.530Z,5.03
2022-12-29T20:12:58.152Z,6.43
2022-12-29T20:15:25.009Z,6.18
2022-12-29T20:20:38.174Z,6.90
2022-12-29T20:23:04.756Z,5.55
2022-12-29T20:25:44.888Z,5.00
2022-12-29T20:28:12.905Z,5.88
2022-12-29T20:30:39.592Z,6.03
2022-12-29T20:33:08.515Z,5.60
2022-12-29T20:35:36.079Z,5.35
2022-12-29T20:38:02.744Z,5.20
2022-12-29T20:40:29.425Z,5.85
2022-12-29T20:42:56.130Z,5.20
2022-12-29T20:45:22.905Z,6.20
2022-12-29T20:47:49.551Z,5.43
2022-12-29T20:50:16.216Z,5.18
2022-12-29T20:52:42.994Z,5.28
2022-12-29T20:55:09.706Z,5.88
2022-12-29T20:58:13.648Z,6.57
2022-12-29T21:00:23.096Z,8.38
2022-12-29T21:02:50.156Z,7.63
2022-12-29T21:05:25.483Z,8.60
2022-12-29T21:07:53.831Z,10.90
2022-12-29T21:10:21.410Z,10.27
2022-12-29T21:12:48.664Z,10.23
2022-12-29T21:15:15.573Z,11.50
2022-12-29T21:17:43.377Z,10.88
2022-12-29T21:20:20.282Z,10.77
2022-12-29T21:22:47.919Z,11.27
2022-12-29T21:25:14.958Z,11.98
2022-12-29T21:27:44.896Z,11.57
2022-12-29T21:30:12.736Z,12.02
2022-12-29T21:32:40.413Z,12.13
2022-12-29T21:35:08.709Z,12.68
2022-12-29T21:37:36.179Z,12.32
2022-12-29T21:40:04.500Z,13.57
2022-12-29T21:42:31.498Z,11.40
2022-12-29T21:45:20.501Z,11.77
2022-12-29T21:48:06.596Z,12.63
2022-12-29T21:50:33.296Z,11.57
2022-12-29T21:53:00.033Z,11.40
2022-12-29T21:59:57.887Z,11.65
2022-12-29T22:02:47.235Z,12.00
2022-12-29T22:05:33.791Z,12.32
2022-12-29T22:08:23.760Z,11.77
2022-12-29T22:11:09.045Z,12.27
2022-12-29T22:13:38.102Z,13.13
2022-12-29T22:16:10.831Z,12.70
2022-12-29T22:18:38.050Z,13.85
2022-12-29T22:21:06.144Z,12.73
2022-12-29T22:23:32.853Z,12.68
2022-12-29T22:26:07.424Z,15.02
2022-12-29T22:28:38.545Z,13.77
2022-12-29T22:31:07.616Z,15.20
2022-12-29T22:33:34.245Z,14.82
2022-12-29T22:36:00.875Z,14.43
2022-12-29T22:38:27.479Z,13.65
2022-12-29T22:41:31.265Z,14.77
2022-12-29T22:43:57.933Z,14.27
2022-12-29T22:46:27.788Z,13.90
2022-12-29T22:48:56.782Z,13.07
2022-12-29T22:51:23.623Z,13.23
2022-12-29T22:54:18.101Z,13.60
2022-12-29T22:56:44.764Z,14.07
2022-12-29T22:59:12.491Z,13.57
2022-12-29T23:01:39.648Z,13.02
2022-12-29T23:04:57.190Z,13.68
2022-12-29T23:06:53.501Z,13.93
2022-12-29T23:09:21.995Z,14.27
2022-12-29T23:11:49.503Z,13.25
2022-12-29T23:14:17.253Z,13.73
2022-12-29T23:16:44.651Z,13.68
2022-12-29T23:19:12.516Z,13.98
2022-12-29T23:21:39.345Z,15.00
2022-12-29T23:24:07.281Z,13.88
2022-12-29T23:26:37.178Z,14.52
2022-12-29T23:29:06.302Z,15.10
2022-12-29T23:31:33.596Z,13.90
2022-12-29T23:34:01.881Z,15.13
2022-12-29T23:36:31.093Z,15.15
2022-12-29T23:38:57.986Z,15.02
2022-12-29T23:41:25.916Z,15.32
2022-12-29T23:43:52.612Z,14.65
2022-12-29T23:46:25.171Z,16.05
2022-12-29T23:48:55.141Z,13.98
2022-12-29T23:51:22.139Z,14.18
2022-12-29T23:53:48.878Z,13.27
2022-12-29T23:56:19.193Z,15.82
2022-12-29T23:58:46.271Z,13.73
